sensor_id;sensor_type;location;lat;lon;timestamp;P1;durP1;ratioP1;P2;durP2;ratioP2
26588;SDS011;14235;48.532;8.722;2023-03-19T00:02:01;6.30;;;4.50;;
26588;SDS011;14235;48.532;8.722;2023-03-19T00:04:27;12.18;;;7.20;;
26588;SDS011;14235;48.532;8.722;2023-03-19T00:06:53;5.30;;;4.80;;
26588;SDS011;14235;48.532;8.722;2023-03-19T00:09:19;9.40;;;6.90;;
26588;SDS011;14235;48.532;8.722;2023-03-19T00:11:46;8.18;;;6.95;;
26588;SDS011;14235;48.532;8.722;2023-03-19T00:14:12;6.28;;;5.68;;
26588;SDS011;14235;48.532;8.722;2023-03-19T00:16:39;6.85;;;5.43;;
26588;SDS011;14235;48.532;8.722;2023-03-19T00:19:04;6.40;;;5.47;;
26588;SDS011;14235;48.532;8.722;2023-03-19T00:21:30;5.30;;;4.65;;
26588;SDS011;14235;48.532;8.722;2023-03-19T00:23:56;6.15;;;4.57;;
26588;SDS011;14235;48.532;8.722;2023-03-19T00:26:27;6.25;;;4.57;;
26588;SDS011;14235;48.532;8.722;2023-03-19T00:28:54;5.90;;;4.63;;
26588;SDS011;14235;48.532;8.722;2023-03-19T00:31:20;6.25;;;4.10;;
26588;SDS011;14235;48.532;8.722;2023-03-19T00:33:46;5.88;;;4.28;;
26588;SDS011;14235;48.532;8.722;2023-03-19T00:36:12;5.30;;;3.95;;
26588;SDS011;14235;48.532;8.722;2023-03-19T00:38:40;5.22;;;3.83;;
26588;SDS011;14235;48.532;8.722;2023-03-19T00:41:06;5.88;;;4.30;;
26588;SDS011;14235;48.532;8.722;2023-03-19T00:43:32;5.13;;;4.20;;
26588;SDS011;14235;48.532;8.722;2023-03-19T00:45:58;6.03;;;4.57;;
26588;SDS011;14235;48.532;8.722;2023-03-19T00:48:24;5.68;;;4.30;;
26588;SDS011;14235;48.532;8.722;2023-03-19T00:50:50;5.43;;;4.20;;
26588;SDS011;14235;48.532;8.722;2023-03-19T00:53:16;7.25;;;4.30;;
26588;SDS011;14235;48.532;8.722;2023-03-19T00:55:42;5.40;;;4.20;;
26588;SDS011;14235;48.532;8.722;2023-03-19T00:58:08;5.72;;;3.95;;
26588;SDS011;14235;48.532;8.722;2023-03-19T01:00:34;8.18;;;4.38;;
26588;SDS011;14235;48.532;8.722;2023-03-19T01:03:00;6.43;;;4.53;;
26588;SDS011;14235;48.532;8.722;2023-03-19T01:05:26;5.20;;;4.25;;
26588;SDS011;14235;48.532;8.722;2023-03-19T01:07:52;5.93;;;4.00;;
26588;SDS011;14235;48.532;8.722;2023-03-19T01:10:18;4.38;;;3.97;;
26588;SDS011;14235;48.532;8.722;2023-03-19T01:12:46;5.30;;;4.38;;
26588;SDS011;14235;48.532;8.722;2023-03-19T01:15:13;6.00;;;3.67;;
26588;SDS011;14235;48.532;8.722;2023-03-19T01:17:39;6.22;;;3.80;;
26588;SDS011;14235;48.532;8.722;2023-03-19T01:20:06;5.22;;;4.00;;
26588;SDS011;14235;48.532;8.722;2023-03-19T01:22:39;5.82;;;4.25;;
26588;SDS011;14235;48.532;8.722;2023-03-19T01:25:06;6.82;;;4.07;;
26588;SDS011;14235;48.532;8.722;2023-03-19T01:27:33;6.72;;;4.22;;
26588;SDS011;14235;48.532;8.722;2023-03-19T01:29:59;4.35;;;3.47;;
26588;SDS011;14235;48.532;8.722;2023-03-19T01:32:25;5.07;;;4.05;;
26588;SDS011;14235;48.532;8.722;2023-03-19T01:34:51;5.75;;;4.05;;
26588;SDS011;14235;48.532;8.722;2023-03-19T01:37:17;6.43;;;3.83;;
26588;SDS011;14235;48.532;8.722;2023-03-19T01:39:43;5.40;;;4.13;;
26588;SDS011;14235;48.532;8.722;2023-03-19T01:42:09;5.55;;;4.00;;
26588;SDS011;14235;48.532;8.722;2023-03-19T01:44:35;4.43;;;4.03;;
26588;SDS011;14235;48.532;8.722;2023-03-19T01:47:06;4.32;;;3.67;;
26588;SDS011;14235;48.532;8.722;2023-03-19T01:49:45;6.75;;;3.80;;
26588;SDS011;14235;48.532;8.722;2023-03-19T01:52:14;7.80;;;3.60;;
26588;SDS011;14235;48.532;8.722;2023-03-19T01:54:40;5.63;;;3.58;;
26588;SDS011;14235;48.532;8.722;2023-03-19T01:57:08;5.18;;;3.45;;
26588;SDS011;14235;48.532;8.722;2023-03-19T01:59:38;3.42;;;3.13;;
26588;SDS011;14235;48.532;8.722;2023-03-19T02:02:28;5.82;;;3.70;;
26588;SDS011;14235;48.532;8.722;2023-03-19T02:05:06;5.55;;;3.75;;
26588;SDS011;14235;48.532;8.722;2023-03-19T02:07:34;3.65;;;3.35;;
26588;SDS011;14235;48.532;8.722;2023-03-19T02:10:01;5.05;;;3.92;;
26588;SDS011;14235;48.532;8.722;2023-03-19T02:12:31;5.55;;;3.63;;
26588;SDS011;14235;48.532;8.722;2023-03-19T02:14:57;4.30;;;3.50;;
26588;SDS011;14235;48.532;8.722;2023-03-19T02:17:22;6.22;;;3.67;;
26588;SDS011;14235;48.532;8.722;2023-03-19T02:19:49;4.47;;;3.72;;
26588;SDS011;14235;48.532;8.722;2023-03-19T02:22:21;5.47;;;3.47;;
26588;SDS011;14235;48.532;8.722;2023-03-19T02:24:52;4.03;;;3.40;;
26588;SDS011;14235;48.532;8.722;2023-03-19T02:27:21;6.05;;;3.88;;
26588;SDS011;14235;48.532;8.722;2023-03-19T02:29:47;3.90;;;3.50;;
26588;SDS011;14235;48.532;8.722;2023-03-19T02:32:13;3.63;;;3.35;;
26588;SDS011;14235;48.532;8.722;2023-03-19T02:34:39;3.95;;;3.58;;
26588;SDS011;14235;48.532;8.722;2023-03-19T02:37:15;4.43;;;3.90;;
26588;SDS011;14235;48.532;8.722;2023-03-19T02:39:58;4.10;;;3.70;;
26588;SDS011;14235;48.532;8.722;2023-03-19T02:42:28;4.07;;;3.65;;
26588;SDS011;14235;48.532;8.722;2023-03-19T02:44:54;5.72;;;4.38;;
26588;SDS011;14235;48.532;8.722;2023-03-19T02:47:21;4.50;;;4.10;;
26588;SDS011;14235;48.532;8.722;2023-03-19T02:49:48;3.92;;;3.33;;
26588;SDS011;14235;48.532;8.722;2023-03-19T02:52:14;4.10;;;3.42;;
26588;SDS011;14235;48.532;8.722;2023-03-19T02:54:40;6.43;;;3.97;;
26588;SDS011;14235;48.532;8.722;2023-03-19T02:57:06;4.72;;;3.65;;
26588;SDS011;14235;48.532;8.722;2023-03-19T02:59:32;4.00;;;3.10;;
26588;SDS011;14235;48.532;8.722;2023-03-19T03:01:57;5.88;;;3.70;;
26588;SDS011;14235;48.532;8.722;2023-03-19T03:04:23;3.45;;;3.15;;
26588;SDS011;14235;48.532;8.722;2023-03-19T03:06:50;4.50;;;3.30;;
26588;SDS011;14235;48.532;8.722;2023-03-19T03:09:15;4.05;;;3.45;;
26588;SDS011;14235;48.532;8.722;2023-03-19T03:11:42;4.30;;;3.90;;
26588;SDS011;14235;48.532;8.722;2023-03-19T03:14:08;4.07;;;3.55;;
26588;SDS011;14235;48.532;8.722;2023-03-19T03:16:33;10.38;;;3.85;;
26588;SDS011;14235;48.532;8.722;2023-03-19T03:18:59;4.53;;;3.45;;
26588;SDS011;14235;48.532;8.722;2023-03-19T03:21:26;3.95;;;3.30;;
26588;SDS011;14235;48.532;8.722;2023-03-19T03:23:52;5.10;;;3.63;;
26588;SDS011;14235;48.532;8.722;2023-03-19T03:26:17;4.05;;;3.50;;
26588;SDS011;14235;48.532;8.722;2023-03-19T03:28:43;4.78;;;3.65;;
26588;SDS011;14235;48.532;8.722;2023-03-19T03:31:09;4.20;;;3.28;;
26588;SDS011;14235;48.532;8.722;2023-03-19T03:33:35;3.83;;;3.30;;
26588;SDS011;14235;48.532;8.722;2023-03-19T03:36:01;5.72;;;3.53;;
26588;SDS011;14235;48.532;8.722;2023-03-19T03:38:27;3.58;;;3.15;;
26588;SDS011;14235;48.532;8.722;2023-03-19T03:40:52;8.15;;;3.53;;
26588;SDS011;14235;48.532;8.722;2023-03-19T03:43:18;5.47;;;3.83;;
26588;SDS011;14235;48.532;8.722;2023-03-19T03:45:45;4.32;;;3.78;;
26588;SDS011;14235;48.532;8.722;2023-03-19T03:48:12;3.75;;;3.17;;
26588;SDS011;14235;48.532;8.722;2023-03-19T03:50:38;3.75;;;3.38;;
26588;SDS011;14235;48.532;8.722;2023-03-19T03:53:04;3.72;;;3.38;;
26588;SDS011;14235;48.532;8.722;2023-03-19T03:55:30;4.03;;;3.42;;
26588;SDS011;14235;48.532;8.722;2023-03-19T03:57:56;4.75;;;3.40;;
26588;SDS011;14235;48.532;8.722;2023-03-19T04:00:22;4.35;;;3.30;;
26588;SDS011;14235;48.532;8.722;2023-03-19T04:02:48;3.28;;;3.08;;
26588;SDS011;14235;48.532;8.722;2023-03-19T04:05:14;4.03;;;3.25;;
26588;SDS011;14235;48.532;8.722;2023-03-19T04:07:40;3.35;;;3.05;;
26588;SDS011;14235;48.532;8.722;2023-03-19T04:10:06;3.88;;;3.22;;
26588;SDS011;14235;48.532;8.722;2023-03-19T04:12:33;3.38;;;3.08;;
26588;SDS011;14235;48.532;8.722;2023-03-19T04:14:59;3.97;;;3.38;;
26588;SDS011;14235;48.532;8.722;2023-03-19T04:17:25;3.33;;;2.80;;
26588;SDS011;14235;48.532;8.722;2023-03-19T04:19:50;4.00;;;3.10;;
26588;SDS011;14235;48.532;8.722;2023-03-19T04:22:16;4.80;;;3.15;;
26588;SDS011;14235;48.532;8.722;2023-03-19T04:24:41;4.85;;;2.90;;
26588;SDS011;14235;48.532;8.722;2023-03-19T04:27:07;4.75;;;2.83;;
26588;SDS011;14235;48.532;8.722;2023-03-19T04:29:33;4.70;;;3.10;;
26588;SDS011;14235;48.532;8.722;2023-03-19T04:31:58;3.30;;;3.00;;
26588;SDS011;14235;48.532;8.722;2023-03-19T04:34:24;5.50;;;3.22;;
26588;SDS011;14235;48.532;8.722;2023-03-19T04:36:50;2.97;;;2.67;;
26588;SDS011;14235;48.532;8.722;2023-03-19T04:39:17;4.50;;;3.20;;
26588;SDS011;14235;48.532;8.722;2023-03-19T04:41:43;4.13;;;3.10;;
26588;SDS011;14235;48.532;8.722;2023-03-19T04:44:09;4.18;;;2.95;;
26588;SDS011;14235;48.532;8.722;2023-03-19T04:46:35;4.80;;;3.10;;
26588;SDS011;14235;48.532;8.722;2023-03-19T04:49:00;3.70;;;3.22;;
26588;SDS011;14235;48.532;8.722;2023-03-19T04:51:26;3.08;;;2.78;;
26588;SDS011;14235;48.532;8.722;2023-03-19T04:53:52;2.83;;;2.63;;
26588;SDS011;14235;48.532;8.722;2023-03-19T04:56:17;3.38;;;3.08;;
26588;SDS011;14235;48.532;8.722;2023-03-19T04:58:44;3.40;;;3.08;;
26588;SDS011;14235;48.532;8.722;2023-03-19T05:01:10;4.75;;;3.08;;
26588;SDS011;14235;48.532;8.722;2023-03-19T05:03:36;5.38;;;3.08;;
26588;SDS011;14235;48.532;8.722;2023-03-19T05:06:01;5.43;;;3.20;;
26588;SDS011;14235;48.532;8.722;2023-03-19T05:08:27;2.95;;;2.75;;
26588;SDS011;14235;48.532;8.722;2023-03-19T05:10:53;3.40;;;3.10;;
26588;SDS011;14235;48.532;8.722;2023-03-19T05:13:18;5.13;;;3.28;;
26588;SDS011;14235;48.532;8.722;2023-03-19T05:15:44;3.63;;;2.70;;
26588;SDS011;14235;48.532;8.722;2023-03-19T05:18:10;2.80;;;2.60;;
26588;SDS011;14235;48.532;8.722;2023-03-19T05:20:37;3.33;;;2.80;;
26588;SDS011;14235;48.532;8.722;2023-03-19T05:23:03;3.78;;;3.00;;
26588;SDS011;14235;48.532;8.722;2023-03-19T05:25:29;3.28;;;2.97;;
26588;SDS011;14235;48.532;8.722;2023-03-19T05:27:54;4.90;;;2.97;;
26588;SDS011;14235;48.532;8.722;2023-03-19T05:30:20;3.00;;;2.80;;
26588;SDS011;14235;48.532;8.722;2023-03-19T05:32:47;3.65;;;2.95;;
26588;SDS011;14235;48.532;8.722;2023-03-19T05:35:14;3.33;;;2.90;;
26588;SDS011;14235;48.532;8.722;2023-03-19T05:37:40;3.35;;;3.00;;
26588;SDS011;14235;48.532;8.722;2023-03-19T05:40:06;3.35;;;2.63;;
26588;SDS011;14235;48.532;8.722;2023-03-19T05:42:31;3.30;;;3.08;;
26588;SDS011;14235;48.532;8.722;2023-03-19T05:44:57;2.80;;;2.60;;
26588;SDS011;14235;48.532;8.722;2023-03-19T05:47:22;3.40;;;2.78;;
26588;SDS011;14235;48.532;8.722;2023-03-19T05:49:48;2.92;;;2.67;;
26588;SDS011;14235;48.532;8.722;2023-03-19T05:52:14;3.10;;;2.90;;
26588;SDS011;14235;48.532;8.722;2023-03-19T05:54:40;3.08;;;2.80;;
26588;SDS011;14235;48.532;8.722;2023-03-19T05:57:06;3.17;;;2.88;;
26588;SDS011;14235;48.532;8.722;2023-03-19T05:59:32;2.97;;;2.72;;
26588;SDS011;14235;48.532;8.722;2023-03-19T06:01:58;3.17;;;2.95;;
26588;SDS011;14235;48.532;8.722;2023-03-19T06:04:23;3.22;;;2.92;;
26588;SDS011;14235;48.532;8.722;2023-03-19T06:06:49;5.28;;;3.10;;
26588;SDS011;14235;48.532;8.722;2023-03-19T06:09:15;2.80;;;2.60;;
26588;SDS011;14235;48.532;8.722;2023-03-19T06:11:41;3.17;;;2.88;;
26588;SDS011;14235;48.532;8.722;2023-03-19T06:14:06;2.97;;;2.70;;
26588;SDS011;14235;48.532;8.722;2023-03-19T06:16:32;2.80;;;2.60;;
26588;SDS011;14235;48.532;8.722;2023-03-19T06:18:58;3.42;;;2.53;;
26588;SDS011;14235;48.532;8.722;2023-03-19T06:21:24;3.67;;;2.95;;
26588;SDS011;14235;48.532;8.722;2023-03-19T06:23:53;4.57;;;2.70;;
26588;SDS011;14235;48.532;8.722;2023-03-19T06:26:19;3.17;;;2.80;;
26588;SDS011;14235;48.532;8.722;2023-03-19T06:28:45;2.63;;;2.42;;
26588;SDS011;14235;48.532;8.722;2023-03-19T06:31:10;3.55;;;2.90;;
26588;SDS011;14235;48.532;8.722;2023-03-19T06:33:36;3.80;;;2.53;;
26588;SDS011;14235;48.532;8.722;2023-03-19T06:36:02;4.05;;;3.10;;
26588;SDS011;14235;48.532;8.722;2023-03-19T06:38:27;2.97;;;2.78;;
26588;SDS011;14235;48.532;8.722;2023-03-19T06:40:53;3.10;;;2.80;;
26588;SDS011;14235;48.532;8.722;2023-03-19T06:43:18;5.13;;;3.30;;
26588;SDS011;14235;48.532;8.722;2023-03-19T06:45:44;3.72;;;3.15;;
26588;SDS011;14235;48.532;8.722;2023-03-19T06:48:11;3.78;;;3.30;;
26588;SDS011;14235;48.532;8.722;2023-03-19T06:50:36;4.38;;;2.97;;
26588;SDS011;14235;48.532;8.722;2023-03-19T06:53:02;4.97;;;3.20;;
26588;SDS011;14235;48.532;8.722;2023-03-19T06:55:28;4.60;;;3.10;;
26588;SDS011;14235;48.532;8.722;2023-03-19T06:57:55;3.50;;;2.80;;
26588;SDS011;14235;48.532;8.722;2023-03-19T07:00:21;2.72;;;2.53;;
26588;SDS011;14235;48.532;8.722;2023-03-19T07:02:46;3.60;;;2.75;;
26588;SDS011;14235;48.532;8.722;2023-03-19T07:05:12;3.55;;;3.22;;
26588;SDS011;14235;48.532;8.722;2023-03-19T07:07:38;3.38;;;3.10;;
26588;SDS011;14235;48.532;8.722;2023-03-19T07:10:03;3.15;;;2.60;;
26588;SDS011;14235;48.532;8.722;2023-03-19T07:12:30;3.05;;;2.63;;
26588;SDS011;14235;48.532;8.722;2023-03-19T07:14:56;4.25;;;2.70;;
26588;SDS011;14235;48.532;8.722;2023-03-19T07:17:22;3.22;;;2.92;;
26588;SDS011;14235;48.532;8.722;2023-03-19T07:19:48;2.72;;;2.53;;
26588;SDS011;14235;48.532;8.722;2023-03-19T07:22:14;3.78;;;3.47;;
26588;SDS011;14235;48.532;8.722;2023-03-19T07:24:40;3.00;;;2.75;;
26588;SDS011;14235;48.532;8.722;2023-03-19T07:27:06;3.05;;;2.80;;
26588;SDS011;14235;48.532;8.722;2023-03-19T07:29:31;2.88;;;2.67;;
26588;SDS011;14235;48.532;8.722;2023-03-19T07:31:57;5.07;;;3.03;;
26588;SDS011;14235;48.532;8.722;2023-03-19T07:34:23;3.20;;;2.90;;
26588;SDS011;14235;48.532;8.722;2023-03-19T07:36:49;2.88;;;2.65;;
26588;SDS011;14235;48.532;8.722;2023-03-19T07:39:15;3.97;;;2.70;;
26588;SDS011;14235;48.532;8.722;2023-03-19T07:41:41;3.10;;;2.90;;
26588;SDS011;14235;48.532;8.722;2023-03-19T07:44:08;2.60;;;2.40;;
26588;SDS011;14235;48.532;8.722;2023-03-19T07:46:34;3.25;;;2.67;;
26588;SDS011;14235;48.532;8.722;2023-03-19T07:49:00;3.30;;;2.67;;
26588;SDS011;14235;48.532;8.722;2023-03-19T07:51:26;2.55;;;2.35;;
26588;SDS011;14235;48.532;8.722;2023-03-19T07:53:52;3.00;;;2.70;;
26588;SDS011;14235;48.532;8.722;2023-03-19T07:56:17;2.97;;;2.63;;
26588;SDS011;14235;48.532;8.722;2023-03-19T07:58:43;3.92;;;2.80;;
26588;SDS011;14235;48.532;8.722;2023-03-19T08:01:08;3.38;;;2.83;;
26588;SDS011;14235;48.532;8.722;2023-03-19T08:03:34;3.00;;;2.80;;
26588;SDS011;14235;48.532;8.722;2023-03-19T08:06:00;2.60;;;2.40;;
26588;SDS011;14235;48.532;8.722;2023-03-19T08:08:26;3.03;;;2.65;;
26588;SDS011;14235;48.532;8.722;2023-03-19T08:10:52;2.75;;;2.55;;
26588;SDS011;14235;48.532;8.722;2023-03-19T08:13:19;3.60;;;2.65;;
26588;SDS011;14235;48.532;8.722;2023-03-19T08:15:44;4.43;;;2.88;;
26588;SDS011;14235;48.532;8.722;2023-03-19T08:18:10;2.95;;;2.67;;
26588;SDS011;14235;48.532;8.722;2023-03-19T08:20:36;2.90;;;2.55;;
26588;SDS011;14235;48.532;8.722;2023-03-19T08:23:01;3.45;;;2.78;;
26588;SDS011;14235;48.532;8.722;2023-03-19T08:25:28;3.85;;;3.30;;
26588;SDS011;14235;48.532;8.722;2023-03-19T08:27:56;3.40;;;3.10;;
26588;SDS011;14235;48.532;8.722;2023-03-19T08:30:25;5.80;;;3.80;;
26588;SDS011;14235;48.532;8.722;2023-03-19T08:32:50;3.78;;;3.30;;
26588;SDS011;14235;48.532;8.722;2023-03-19T08:35:16;5.82;;;3.83;;
26588;SDS011;14235;48.532;8.722;2023-03-19T08:37:42;8.32;;;4.95;;
26588;SDS011;14235;48.532;8.722;2023-03-19T08:40:07;5.60;;;4.50;;
26588;SDS011;14235;48.532;8.722;2023-03-19T08:42:34;6.43;;;4.15;;
26588;SDS011;14235;48.532;8.722;2023-03-19T08:44:59;5.30;;;3.85;;
26588;SDS011;14235;48.532;8.722;2023-03-19T08:47:25;3.83;;;3.50;;
26588;SDS011;14235;48.532;8.722;2023-03-19T08:49:51;3.88;;;3.30;;
26588;SDS011;14235;48.532;8.722;2023-03-19T08:52:17;2.70;;;2.50;;
26588;SDS011;14235;48.532;8.722;2023-03-19T08:54:43;2.80;;;2.47;;
26588;SDS011;14235;48.532;8.722;2023-03-19T08:57:09;3.15;;;2.30;;
26588;SDS011;14235;48.532;8.722;2023-03-19T08:59:36;2.80;;;2.28;;
26588;SDS011;14235;48.532;8.722;2023-03-19T09:02:02;2.58;;;2.30;;
26588;SDS011;14235;48.532;8.722;2023-03-19T09:04:27;5.45;;;2.30;;
26588;SDS011;14235;48.532;8.722;2023-03-19T09:06:53;2.92;;;2.25;;
26588;SDS011;14235;48.532;8.722;2023-03-19T09:09:19;2.20;;;2.05;;
26588;SDS011;14235;48.532;8.722;2023-03-19T09:11:47;2.78;;;2.08;;
26588;SDS011;14235;48.532;8.722;2023-03-19T09:14:13;2.40;;;2.22;;
26588;SDS011;14235;48.532;8.722;2023-03-19T09:16:40;2.50;;;2.30;;
26588;SDS011;14235;48.532;8.722;2023-03-19T09:19:06;3.58;;;2.60;;
26588;SDS011;14235;48.532;8.722;2023-03-19T09:21:32;3.60;;;2.47;;
26588;SDS011;14235;48.532;8.722;2023-03-19T09:23:58;2.67;;;2.33;;
26588;SDS011;14235;48.532;8.722;2023-03-19T09:26:24;3.72;;;2.30;;
26588;SDS011;14235;48.532;8.722;2023-03-19T09:28:49;4.13;;;2.50;;
26588;SDS011;14235;48.532;8.722;2023-03-19T09:31:15;3.15;;;2.38;;
26588;SDS011;14235;48.532;8.722;2023-03-19T09:33:41;4.80;;;2.47;;
26588;SDS011;14235;48.532;8.722;2023-03-19T09:36:06;3.58;;;2.63;;
26588;SDS011;14235;48.532;8.722;2023-03-19T09:38:32;3.13;;;2.28;;
26588;SDS011;14235;48.532;8.722;2023-03-19T09:41:09;2.53;;;2.30;;
26588;SDS011;14235;48.532;8.722;2023-03-19T09:44:42;2.45;;;2.25;;
26588;SDS011;14235;48.532;8.722;2023-03-19T09:47:11;4.85;;;2.55;;
26588;SDS011;14235;48.532;8.722;2023-03-19T09:49:47;3.70;;;2.33;;
26588;SDS011;14235;48.532;8.722;2023-03-19T09:55:00;2.83;;;2.50;;
26588;SDS011;14235;48.532;8.722;2023-03-19T09:57:35;2.97;;;2.42;;
26588;SDS011;14235;48.532;8.722;2023-03-19T10:00:09;2.40;;;2.20;;
26588;SDS011;14235;48.532;8.722;2023-03-19T10:02:44;3.63;;;2.40;;
26588;SDS011;14235;48.532;8.722;2023-03-19T10:05:31;2.63;;;2.38;;
26588;SDS011;14235;48.532;8.722;2023-03-19T10:17:11;2.33;;;2.10;;
26588;SDS011;14235;48.532;8.722;2023-03-19T10:19:44;2.55;;;2.35;;
26588;SDS011;14235;48.532;8.722;2023-03-19T10:22:13;3.78;;;2.50;;
26588;SDS011;14235;48.532;8.722;2023-03-19T10:24:43;3.30;;;2.58;;
26588;SDS011;14235;48.532;8.722;2023-03-19T10:27:17;3.60;;;2.35;;
26588;SDS011;14235;48.532;8.722;2023-03-19T10:29:45;2.53;;;2.33;;
26588;SDS011;14235;48.532;8.722;2023-03-19T10:32:14;2.65;;;2.30;;
26588;SDS011;14235;48.532;8.722;2023-03-19T10:34:46;3.88;;;2.60;;
26588;SDS011;14235;48.532;8.722;2023-03-19T10:37:16;3.70;;;2.58;;
26588;SDS011;14235;48.532;8.722;2023-03-19T10:39:45;4.53;;;2.10;;
26588;SDS011;14235;48.532;8.722;2023-03-19T10:44:58;3.65;;;2.50;;
26588;SDS011;14235;48.532;8.722;2023-03-19T10:47:27;2.72;;;2.00;;
26588;SDS011;14235;48.532;8.722;2023-03-19T10:49:54;2.28;;;1.60;;
26588;SDS011;14235;48.532;8.722;2023-03-19T10:52:27;2.53;;;2.03;;
26588;SDS011;14235;48.532;8.722;2023-03-19T10:55:18;2.45;;;2.00;;
26588;SDS011;14235;48.532;8.722;2023-03-19T10:58:00;2.60;;;1.77;;
26588;SDS011;14235;48.532;8.722;2023-03-19T11:00:29;2.70;;;1.90;;
26588;SDS011;14235;48.532;8.722;2023-03-19T11:02:57;3.35;;;2.10;;
26588;SDS011;14235;48.532;8.722;2023-03-19T11:05:29;1.65;;;1.55;;
26588;SDS011;14235;48.532;8.722;2023-03-19T11:10:45;3.13;;;2.20;;
26588;SDS011;14235;48.532;8.722;2023-03-19T11:13:19;4.40;;;2.42;;
26588;SDS011;14235;48.532;8.722;2023-03-19T11:15:48;3.03;;;2.20;;
26588;SDS011;14235;48.532;8.722;2023-03-19T11:18:23;2.53;;;2.28;;
26588;SDS011;14235;48.532;8.722;2023-03-19T11:21:23;2.67;;;2.38;;
26588;SDS011;14235;48.532;8.722;2023-03-19T11:23:57;2.30;;;2.10;;
26588;SDS011;14235;48.532;8.722;2023-03-19T11:26:25;2.72;;;1.90;;
26588;SDS011;14235;48.532;8.722;2023-03-19T11:28:52;2.35;;;1.60;;
26588;SDS011;14235;48.532;8.722;2023-03-19T11:40:15;3.22;;;1.85;;
26588;SDS011;14235;48.532;8.722;2023-03-19T11:48:11;3.35;;;1.90;;
26588;SDS011;14235;48.532;8.722;2023-03-19T11:51:02;2.47;;;1.88;;
26588;SDS011;14235;48.532;8.722;2023-03-19T11:53:31;3.28;;;1.83;;
26588;SDS011;14235;48.532;8.722;2023-03-19T11:56:02;1.88;;;1.63;;
26588;SDS011;14235;48.532;8.722;2023-03-19T11:59:02;2.33;;;2.00;;
26588;SDS011;14235;48.532;8.722;2023-03-19T12:05:15;5.53;;;1.90;;
26588;SDS011;14235;48.532;8.722;2023-03-19T12:07:49;4.32;;;1.88;;
26588;SDS011;14235;48.532;8.722;2023-03-19T12:10:51;4.13;;;1.85;;
26588;SDS011;14235;48.532;8.722;2023-03-19T12:21:45;2.80;;;2.05;;
26588;SDS011;14235;48.532;8.722;2023-03-19T12:35:54;1.70;;;1.60;;
26588;SDS011;14235;48.532;8.722;2023-03-19T12:38:36;1.60;;;1.50;;
26588;SDS011;14235;48.532;8.722;2023-03-19T12:41:06;1.63;;;1.30;;
26588;SDS011;14235;48.532;8.722;2023-03-19T12:46:27;2.33;;;1.63;;
26588;SDS011;14235;48.532;8.722;2023-03-19T12:51:26;1.77;;;1.50;;
26588;SDS011;14235;48.532;8.722;2023-03-19T12:56:37;1.90;;;1.30;;
26588;SDS011;14235;48.532;8.722;2023-03-19T12:59:21;2.65;;;1.40;;
26588;SDS011;14235;48.532;8.722;2023-03-19T13:01:57;1.88;;;1.50;;
26588;SDS011;14235;48.532;8.722;2023-03-19T13:04:32;2.08;;;1.30;;
26588;SDS011;14235;48.532;8.722;2023-03-19T13:07:07;1.80;;;1.38;;
26588;SDS011;14235;48.532;8.722;2023-03-19T13:12:21;1.40;;;1.25;;
26588;SDS011;14235;48.532;8.722;2023-03-19T13:17:53;1.08;;;1.08;;
26588;SDS011;14235;48.532;8.722;2023-03-19T13:23:06;1.83;;;0.98;;
26588;SDS011;14235;48.532;8.722;2023-03-19T13:25:45;0.85;;;0.80;;
26588;SDS011;14235;48.532;8.722;2023-03-19T13:28:17;1.30;;;0.93;;
26588;SDS011;14235;48.532;8.722;2023-03-19T13:33:29;0.85;;;0.85;;
26588;SDS011;14235;48.532;8.722;2023-03-19T13:36:03;1.33;;;0.77;;
26588;SDS011;14235;48.532;8.722;2023-03-19T13:38:46;0.75;;;0.70;;
26588;SDS011;14235;48.532;8.722;2023-03-19T13:46:59;1.92;;;0.50;;
26588;SDS011;14235;48.532;8.722;2023-03-19T13:49:28;1.27;;;0.70;;
26588;SDS011;14235;48.532;8.722;2023-03-19T13:52:00;0.93;;;0.60;;
26588;SDS011;14235;48.532;8.722;2023-03-19T13:54:37;0.82;;;0.82;;
26588;SDS011;14235;48.532;8.722;2023-03-19T13:59:42;0.73;;;0.60;;
26588;SDS011;14235;48.532;8.722;2023-03-19T14:04:48;0.70;;;0.70;;
26588;SDS011;14235;48.532;8.722;2023-03-19T14:07:25;1.13;;;0.85;;
26588;SDS011;14235;48.532;8.722;2023-03-19T14:12:29;0.80;;;0.80;;
26588;SDS011;14235;48.532;8.722;2023-03-19T14:15:00;1.50;;;0.75;;
26588;SDS011;14235;48.532;8.722;2023-03-19T14:17:39;1.85;;;0.80;;
26588;SDS011;14235;48.532;8.722;2023-03-19T14:22:52;1.00;;;0.80;;
26588;SDS011;14235;48.532;8.722;2023-03-19T14:28:40;1.08;;;0.88;;
26588;SDS011;14235;48.532;8.722;2023-03-19T14:34:47;1.08;;;0.98;;
26588;SDS011;14235;48.532;8.722;2023-03-19T14:39:51;1.33;;;0.80;;
26588;SDS011;14235;48.532;8.722;2023-03-19T14:54:14;1.10;;;0.60;;
26588;SDS011;14235;48.532;8.722;2023-03-19T14:56:49;0.85;;;0.80;;
26588;SDS011;14235;48.532;8.722;2023-03-19T14:59:15;1.10;;;0.80;;
26588;SDS011;14235;48.532;8.722;2023-03-19T15:01:47;0.60;;;0.60;;
26588;SDS011;14235;48.532;8.722;2023-03-19T15:04:16;1.42;;;1.15;;
26588;SDS011;14235;48.532;8.722;2023-03-19T15:06:50;0.70;;;0.70;;
26588;SDS011;14235;48.532;8.722;2023-03-19T15:09:25;1.42;;;0.80;;
26588;SDS011;14235;48.532;8.722;2023-03-19T15:17:20;1.00;;;0.50;;
26588;SDS011;14235;48.532;8.722;2023-03-19T15:19:49;1.88;;;0.73;;
26588;SDS011;14235;48.532;8.722;2023-03-19T15:22:25;0.90;;;0.68;;
26588;SDS011;14235;48.532;8.722;2023-03-19T15:25:08;1.05;;;0.47;;
26588;SDS011;14235;48.532;8.722;2023-03-19T15:27:36;0.68;;;0.68;;
26588;SDS011;14235;48.532;8.722;2023-03-19T15:30:17;0.65;;;0.50;;
26588;SDS011;14235;48.532;8.722;2023-03-19T15:32:48;1.00;;;0.75;;
26588;SDS011;14235;48.532;8.722;2023-03-19T15:35:13;1.10;;;0.73;;
26588;SDS011;14235;48.532;8.722;2023-03-19T15:37:40;1.13;;;0.57;;
26588;SDS011;14235;48.532;8.722;2023-03-19T15:40:12;0.70;;;0.70;;
26588;SDS011;14235;48.532;8.722;2023-03-19T15:42:42;0.68;;;0.68;;
26588;SDS011;14235;48.532;8.722;2023-03-19T15:45:11;1.35;;;0.80;;
26588;SDS011;14235;48.532;8.722;2023-03-19T15:47:42;0.90;;;0.90;;
26588;SDS011;14235;48.532;8.722;2023-03-19T15:52:44;0.68;;;0.68;;
26588;SDS011;14235;48.532;8.722;2023-03-19T15:55:14;0.98;;;0.80;;
26588;SDS011;14235;48.532;8.722;2023-03-19T15:57:41;0.80;;;0.77;;
26588;SDS011;14235;48.532;8.722;2023-03-19T16:00:08;0.95;;;0.95;;
26588;SDS011;14235;48.532;8.722;2023-03-19T16:02:36;0.95;;;0.88;;
26588;SDS011;14235;48.532;8.722;2023-03-19T16:05:05;1.65;;;0.70;;
26588;SDS011;14235;48.532;8.722;2023-03-19T16:10:00;0.80;;;0.80;;
26588;SDS011;14235;48.532;8.722;2023-03-19T16:12:55;1.10;;;0.90;;
26588;SDS011;14235;48.532;8.722;2023-03-19T16:15:30;1.23;;;1.10;;
26588;SDS011;14235;48.532;8.722;2023-03-19T16:20:40;1.48;;;1.38;;
26588;SDS011;14235;48.532;8.722;2023-03-19T16:23:15;1.10;;;0.90;;
26588;SDS011;14235;48.532;8.722;2023-03-19T16:25:42;1.00;;;0.80;;
26588;SDS011;14235;48.532;8.722;2023-03-19T16:28:14;1.00;;;0.90;;
26588;SDS011;14235;48.532;8.722;2023-03-19T16:30:48;2.28;;;0.82;;
26588;SDS011;14235;48.532;8.722;2023-03-19T16:33:15;1.48;;;1.13;;
26588;SDS011;14235;48.532;8.722;2023-03-19T16:35:41;1.55;;;1.00;;
26588;SDS011;14235;48.532;8.722;2023-03-19T16:40:40;0.80;;;0.80;;
26588;SDS011;14235;48.532;8.722;2023-03-19T16:43:31;1.10;;;1.10;;
26588;SDS011;14235;48.532;8.722;2023-03-19T16:46:05;0.80;;;0.80;;
26588;SDS011;14235;48.532;8.722;2023-03-19T16:48:36;1.15;;;0.90;;
26588;SDS011;14235;48.532;8.722;2023-03-19T16:51:11;1.83;;;1.00;;
26588;SDS011;14235;48.532;8.722;2023-03-19T16:53:40;2.10;;;1.38;;
26588;SDS011;14235;48.532;8.722;2023-03-19T16:56:08;1.15;;;1.15;;
26588;SDS011;14235;48.532;8.722;2023-03-19T16:58:39;1.05;;;1.05;;
26588;SDS011;14235;48.532;8.722;2023-03-19T17:01:12;1.10;;;1.10;;
26588;SDS011;14235;48.532;8.722;2023-03-19T17:03:46;0.70;;;0.70;;
26588;SDS011;14235;48.532;8.722;2023-03-19T17:06:12;1.00;;;1.00;;